Terminal Aerodrome Forecast
Issued by NWS

Current Version | Previous Version | Graphics & Text | Print | Product List | Glossary On
Versions: 1 2 3 4 5 6 7 8 9 10 11 12 13 14 15 16 17 18
000
FTUS41 KILN 190500
TAFLUK
TAF
KLUK 190540Z 1906/2006 32005KT P6SM OVC035
      TEMPO 1906/1910 OVC030
     FM191700 24003KT P6SM SCT030
     FM200000 19004KT P6SM BKN200=

USA.gov is the U.S. government's official web portal to all federal, state and local government web resources and services.